Wolf Creek Observed Data For Previous 48 Hours

Caption
Day and Hour Reservoir Elevation (behind dam)* Tailwater Elevation (below dam)* Average Hourly Discharge*
12/16/2018 1 AM CST 708.06 558.16 15,860
12/16/2018 2 AM CST 708.12 557.82 15,860
12/16/2018 3 AM CST 708.17 557.57 15,740
12/16/2018 4 AM CST 708.22 557.32 15,740
12/16/2018 5 AM CST 708.27 557.27 15,740
12/16/2018 6 AM CST 708.31 557.21 15,740
12/16/2018 7 AM CST 708.38 557.28 15,740
12/16/2018 8 AM CST 708.42 557.62 19,670
12/16/2018 9 AM CST 708.48 557.98 19,670
12/16/2018 10 AM CST 708.53 558.23 19,820
12/16/2018 11 AM CST 708.58 558.38 19,820
12/16/2018 12 PM CST 708.65 558.45 19,820
12/16/2018 1 PM CST - 999.00 - 999.00 19,820
12/16/2018 2 PM CST - 999.00 - 999.00 19,820
12/16/2018 3 PM CST - 999.00 - 999.00 19,820
12/16/2018 4 PM CST - 999.00 - 999.00 19,820
12/16/2018 5 PM CST - 999.00 - 999.00 19,820
12/16/2018 6 PM CST - 999.00 - 999.00 19,820
12/16/2018 7 PM CST - 999.00 - 999.00 19,820
12/16/2018 8 PM CST - 999.00 - 999.00 19,820
12/16/2018 9 PM CST - 999.00 - 999.00 19,820
12/16/2018 10 PM CST - 999.00 - 999.00 19,820
12/16/2018 11 PM CST - 999.00 - 999.00 19,820
12/17/2018 12 AM CST - 999.00 - 999.00 19,820
12/17/2018 1 AM CST 709.24 557.64 15,580
12/17/2018 2 AM CST 709.28 557.38 15,580
12/17/2018 3 AM CST 709.32 557.02 15,580
12/17/2018 4 AM CST 709.36 556.86 15,420
12/17/2018 5 AM CST 709.40 556.70 15,420
12/17/2018 6 AM CST 709.44 556.64 15,420
12/17/2018 7 AM CST 709.45 557.95 19,470
12/17/2018 8 AM CST 709.47 558.07 19,670
12/17/2018 9 AM CST 709.50 558.20 19,670
12/17/2018 10 AM CST 709.53 558.33 19,720
12/17/2018 11 AM CST 709.56 558.36 19,720
12/17/2018 12 PM CST 709.59 558.39 19,720
12/17/2018 1 PM CST 709.62 558.52 19,720
12/17/2018 2 PM CST 709.62 558.52 19,720
12/17/2018 3 PM CST 709.64 558.64 19,720
12/17/2018 4 PM CST 709.66 558.66 19,670
12/17/2018 5 PM CST 709.68 558.68 19,670
12/17/2018 6 PM CST 709.70 558.70 19,670
12/17/2018 7 PM CST 709.72 558.72 19,670
12/17/2018 8 PM CST 709.74 558.74 19,670
12/17/2018 9 PM CST 709.76 558.76 19,670
12/17/2018 10 PM CST 709.78 558.78 19,670
12/17/2018 11 PM CST 709.80 558.70 19,670
12/18/2018 12 AM CST 709.82 557.62 15,580
12/18/2018 1 AM CST 709.84 557.14 15,420
12/18/2018 2 AM CST 709.86 556.96 15,420
12/18/2018 3 AM CST 709.88 556.88 15,420
12/18/2018 4 AM CST 709.89 556.79 15,420
12/18/2018 5 AM CST 709.90 556.60 15,420
12/18/2018 6 AM CST 709.91 556.51 15,420

Elevations are in feet above sea level. Discharges are in cubic feet per second and are reported at the end of the hour.